createdAt,value
2023-05-05T00:00:22.066Z,100159.47
2023-05-05T00:01:24.266Z,100154.19
2023-05-05T00:02:26.239Z,100152.44
2023-05-05T00:03:29.238Z,100155.66
2023-05-05T00:04:31.341Z,100153.16
2023-05-05T00:05:33.160Z,100154.06
2023-05-05T00:06:35.341Z,100152.34
2023-05-05T00:07:37.198Z,100144.69
2023-05-05T00:08:39.035Z,100154.41
2023-05-05T00:09:41.576Z,100146.91
2023-05-05T00:10:50.815Z,100155.56
2023-05-05T00:11:52.963Z,100151.88
2023-05-05T00:12:54.811Z,100159.78
2023-05-05T00:13:56.718Z,100155.37
2023-05-05T00:14:58.588Z,100150.91
2023-05-05T00:16:00.668Z,100161.41
2023-05-05T00:17:04.080Z,100159.94
2023-05-05T00:18:06.130Z,100158.53
2023-05-05T00:19:08.043Z,100159.66
2023-05-05T00:20:10.364Z,100149.59
2023-05-05T00:21:12.328Z,100153.66
2023-05-05T00:22:14.588Z,100157.22
2023-05-05T00:23:16.993Z,100158.59
2023-05-05T00:24:18.839Z,100149.47
2023-05-05T00:25:20.734Z,100149.94
2023-05-05T00:26:22.910Z,100147.91
2023-05-05T00:27:25.563Z,100145.66
2023-05-05T00:28:27.533Z,100151.31
2023-05-05T00:29:29.949Z,100149.69
2023-05-05T00:30:31.833Z,100150.13
2023-05-05T00:31:34.157Z,100152.81
2023-05-05T00:32:36.552Z,100141.50
2023-05-05T00:33:38.419Z,100153.47
2023-05-05T00:34:41.721Z,100148.81
2023-05-05T00:35:43.638Z,100143.59
2023-05-05T00:36:45.506Z,100143.44
2023-05-05T00:37:48.049Z,100149.94
2023-05-05T00:38:49.946Z,100144.22
2023-05-05T00:39:51.933Z,100143.84
2023-05-05T00:40:53.760Z,100133.78
2023-05-05T00:41:55.583Z,100147.59
2023-05-05T00:42:59.542Z,100140.75
2023-05-05T00:44:01.527Z,100140.78
2023-05-05T00:45:04.167Z,100149.78
2023-05-05T00:46:26.443Z,100140.53
2023-05-05T00:47:28.225Z,100145.59
2023-05-05T00:48:30.567Z,100147.66
2023-05-05T00:49:33.532Z,100147.84
2023-05-05T00:50:35.351Z,100147.09
2023-05-05T00:51:37.082Z,100145.41
2023-05-05T00:52:39.129Z,100145.53
2023-05-05T00:53:43.073Z,100150.47
2023-05-05T00:54:44.907Z,100145.22
2023-05-05T00:55:46.898Z,100146.06
2023-05-05T00:56:49.943Z,100143.72
2023-05-05T00:57:51.677Z,100146.06
2023-05-05T00:58:53.744Z,100139.63
2023-05-05T00:59:55.965Z,100147.97
2023-05-05T01:00:57.669Z,100145.00
2023-05-05T01:01:59.643Z,100138.47
2023-05-05T01:03:01.751Z,100141.47
2023-05-05T01:04:04.043Z,100139.84
2023-05-05T01:05:06.695Z,100136.78
2023-05-05T01:06:16.269Z,100144.97
2023-05-05T01:07:27.460Z,100141.78
2023-05-05T01:08:38.308Z,100142.34
2023-05-05T01:10:15.256Z,100140.78
2023-05-05T01:11:19.470Z,100147.06
2023-05-05T01:12:39.819Z,100146.19
2023-05-05T01:13:44.492Z,100149.78
2023-05-05T01:15:07.567Z,100142.19
2023-05-05T01:16:15.076Z,100141.41
2023-05-05T01:17:22.163Z,100140.03
2023-05-05T01:18:23.794Z,100138.06
2023-05-05T01:19:44.106Z,100138.87
2023-05-05T01:20:52.964Z,100134.50
2023-05-05T01:21:57.235Z,100136.78
2023-05-05T01:23:06.627Z,100130.16
2023-05-05T01:24:20.378Z,100140.03
2023-05-05T01:25:41.618Z,100133.28
2023-05-05T01:26:55.672Z,100127.28
2023-05-05T01:28:09.347Z,100129.59
2023-05-05T01:29:29.792Z,100122.06
2023-05-05T01:30:50.047Z,100126.59
2023-05-05T01:31:52.134Z,100128.22
2023-05-05T01:32:57.982Z,100130.62
2023-05-05T01:34:01.703Z,100135.63
2023-05-05T01:35:09.890Z,100128.19
2023-05-05T01:36:13.484Z,100132.00
2023-05-05T01:37:19.502Z,100130.66
2023-05-05T01:38:41.014Z,100138.22
2023-05-05T01:39:43.819Z,100129.22
2023-05-05T01:40:48.184Z,100133.72
2023-05-05T01:41:51.198Z,100128.03
2023-05-05T01:42:54.335Z,100126.88
2023-05-05T01:43:57.345Z,100127.78
2023-05-05T01:45:00.056Z,100127.59
2023-05-05T01:46:02.499Z,100122.19
2023-05-05T01:47:05.113Z,100130.75
2023-05-05T01:48:08.200Z,100132.88
2023-05-05T01:49:11.064Z,100132.78
2023-05-05T01:50:14.459Z,100133.41
2023-05-05T01:51:17.963Z,100136.34
2023-05-05T01:52:19.920Z,100126.47
2023-05-05T01:53:24.217Z,100125.16
2023-05-05T01:54:27.179Z,100131.50
2023-05-05T01:55:30.436Z,100128.25
2023-05-05T01:56:32.990Z,100128.72
2023-05-05T01:57:36.037Z,100130.03
2023-05-05T01:58:38.792Z,100132.56
2023-05-05T01:59:40.493Z,100135.81
2023-05-05T02:00:44.054Z,100127.25
2023-05-05T02:01:47.289Z,100132.59
2023-05-05T02:02:50.192Z,100135.06
2023-05-05T02:03:52.953Z,100131.91
2023-05-05T02:04:54.777Z,100130.69
2023-05-05T02:05:58.264Z,100127.19
2023-05-05T02:07:01.281Z,100137.97
2023-05-05T02:08:04.406Z,100133.16
2023-05-05T02:09:08.412Z,100135.06
2023-05-05T02:10:12.303Z,100133.16
2023-05-05T02:11:14.284Z,100134.53
2023-05-05T02:12:17.981Z,100129.56
2023-05-05T02:13:20.661Z,100133.78
2023-05-05T02:14:23.486Z,100138.75
2023-05-05T02:15:27.752Z,100133.00
2023-05-05T02:16:31.201Z,100133.16
2023-05-05T02:17:33.016Z,100133.78
2023-05-05T02:18:36.087Z,100127.34
2023-05-05T02:19:43.569Z,100130.03
2023-05-05T02:20:46.972Z,100128.84
2023-05-05T02:21:48.776Z,100135.59
2023-05-05T02:22:50.521Z,100138.81
2023-05-05T02:23:52.361Z,100133.16
2023-05-05T02:24:54.368Z,100130.88
2023-05-05T02:25:59.829Z,100136.84
2023-05-05T02:27:03.725Z,100136.38
2023-05-05T02:28:08.017Z,100135.22
2023-05-05T02:29:30.050Z,100133.00
2023-05-05T02:30:34.610Z,100133.06
2023-05-05T02:31:42.407Z,100135.78
2023-05-05T02:32:44.539Z,100130.75
2023-05-05T02:33:47.392Z,100129.31
2023-05-05T02:34:50.709Z,100126.31
2023-05-05T02:35:53.666Z,100134.31
2023-05-05T02:36:58.052Z,100134.31
2023-05-05T02:38:05.716Z,100134.44
2023-05-05T02:39:13.501Z,100131.22
2023-05-05T02:40:19.888Z,100131.31
2023-05-05T02:41:23.378Z,100131.87
2023-05-05T02:42:31.714Z,100126.97
2023-05-05T02:43:35.051Z,100130.28
2023-05-05T02:44:38.640Z,100131.31
2023-05-05T02:45:40.541Z,100127.31
2023-05-05T02:46:42.987Z,100131.87
2023-05-05T02:47:45.542Z,100136.38
2023-05-05T02:48:47.750Z,100128.81
2023-05-05T02:49:49.675Z,100139.19
2023-05-05T02:50:51.411Z,100132.78
2023-05-05T02:51:53.979Z,100141.63
2023-05-05T02:52:56.490Z,100136.81
2023-05-05T02:53:59.127Z,100139.22
2023-05-05T02:55:01.345Z,100140.16
2023-05-05T02:56:17.987Z,100136.38
2023-05-05T02:57:21.310Z,100144.06
2023-05-05T02:58:29.424Z,100131.56
2023-05-05T02:59:53.116Z,100136.00
2023-05-05T03:01:01.236Z,100135.72
2023-05-05T03:02:21.480Z,100127.03
2023-05-05T03:03:29.728Z,100133.84
2023-05-05T03:04:38.252Z,100131.78
2023-05-05T03:05:47.537Z,100134.84
2023-05-05T03:06:51.138Z,100132.06
2023-05-05T03:08:04.258Z,100133.84
2023-05-05T03:09:15.219Z,100138.87
2023-05-05T03:10:20.193Z,100135.72
2023-05-05T03:11:46.360Z,100134.31
2023-05-05T03:12:56.329Z,100133.72
2023-05-05T03:14:05.699Z,100137.81
2023-05-05T03:15:09.334Z,100140.59
2023-05-05T03:16:12.037Z,100141.19
2023-05-05T03:17:14.709Z,100140.22
2023-05-05T03:18:17.697Z,100135.78
2023-05-05T03:19:20.340Z,100139.00
2023-05-05T03:20:23.101Z,100133.78
2023-05-05T03:21:25.450Z,100142.03
2023-05-05T03:22:27.965Z,100141.06
2023-05-05T03:23:32.013Z,100140.66
2023-05-05T03:24:33.956Z,100137.62
2023-05-05T03:25:47.105Z,100137.47
2023-05-05T03:26:49.815Z,100141.06
2023-05-05T03:27:53.919Z,100137.81
2023-05-05T03:28:55.800Z,100137.00
2023-05-05T03:29:58.269Z,100138.22
2023-05-05T03:31:01.038Z,100140.03
2023-05-05T03:32:03.135Z,100139.66
2023-05-05T03:33:04.920Z,100142.28
2023-05-05T03:34:07.343Z,100140.28
2023-05-05T03:35:09.945Z,100144.31
2023-05-05T03:36:11.942Z,100145.09
2023-05-05T03:37:13.850Z,100148.31
2023-05-05T03:38:16.092Z,100142.66
2023-05-05T03:39:18.899Z,100145.28
2023-05-05T03:40:23.542Z,100152.13
2023-05-05T03:41:32.221Z,100151.53
2023-05-05T03:42:34.471Z,100154.94
2023-05-05T03:43:36.599Z,100151.91
2023-05-05T03:44:38.552Z,100142.69
2023-05-05T03:45:40.341Z,100155.94
2023-05-05T03:46:42.383Z,100146.09
2023-05-05T03:47:44.925Z,100146.28
2023-05-05T03:48:46.682Z,100147.06
2023-05-05T03:49:48.541Z,100145.28
2023-05-05T03:50:50.256Z,100149.13
2023-05-05T03:51:52.642Z,100149.31
2023-05-05T03:52:54.423Z,100147.91
2023-05-05T03:53:56.503Z,100141.03
2023-05-05T03:55:00.044Z,100148.31
2023-05-05T03:56:02.013Z,100149.72
2023-05-05T03:57:04.217Z,100146.66
2023-05-05T03:58:05.922Z,100155.13
2023-05-05T03:59:08.753Z,100146.50
2023-05-05T04:00:11.911Z,100146.50
2023-05-05T04:01:15.946Z,100150.72
2023-05-05T04:02:18.913Z,100148.69
2023-05-05T04:03:21.374Z,100148.25
2023-05-05T04:04:23.247Z,100151.88
2023-05-05T04:05:25.479Z,100153.72
2023-05-05T04:06:27.956Z,100154.50
2023-05-05T04:07:29.947Z,100151.50
2023-05-05T04:08:31.718Z,100162.31
2023-05-05T04:09:33.483Z,100158.72
2023-05-05T04:10:35.573Z,100153.50
2023-05-05T04:11:37.460Z,100150.28
2023-05-05T04:12:39.745Z,100155.91
2023-05-05T04:13:41.793Z,100161.88
2023-05-05T04:14:43.792Z,100157.88
2023-05-05T04:15:46.439Z,100164.72
2023-05-05T04:16:48.976Z,100162.72
2023-05-05T04:17:51.412Z,100162.72
2023-05-05T04:18:53.845Z,100163.53
2023-05-05T04:19:55.723Z,100157.47
2023-05-05T04:20:57.612Z,100161.06
2023-05-05T04:21:59.811Z,100154.59
2023-05-05T04:23:02.182Z,100162.00
2023-05-05T04:24:04.239Z,100164.22
2023-05-05T04:25:06.694Z,100155.63
2023-05-05T04:26:08.446Z,100159.56
2023-05-05T04:27:10.478Z,100156.09
2023-05-05T04:28:12.534Z,100156.84
2023-05-05T04:29:14.424Z,100161.22
2023-05-05T04:30:16.125Z,100155.41
2023-05-05T04:31:17.927Z,100158.63
2023-05-05T04:32:19.852Z,100158.03
2023-05-05T04:33:22.287Z,100154.38
2023-05-05T04:34:24.250Z,100157.16
2023-05-05T04:35:26.239Z,100156.16
2023-05-05T04:36:28.362Z,100151.91
2023-05-05T04:37:30.094Z,100167.16
2023-05-05T04:38:32.280Z,100160.28
2023-05-05T04:39:34.120Z,100158.78
2023-05-05T04:40:40.547Z,100165.41
2023-05-05T04:41:42.451Z,100161.38
2023-05-05T04:42:44.255Z,100165.28
2023-05-05T04:43:46.422Z,100174.00
2023-05-05T04:44:49.025Z,100169.19
2023-05-05T04:45:52.075Z,100168.38
2023-05-05T04:46:54.589Z,100173.06
2023-05-05T04:47:56.733Z,100167.97
2023-05-05T04:48:59.003Z,100178.66
2023-05-05T04:50:01.112Z,100176.59
2023-05-05T04:51:06.506Z,100177.00
2023-05-05T04:52:08.775Z,100177.28
2023-05-05T04:53:11.225Z,100182.41
2023-05-05T04:54:13.933Z,100179.94
2023-05-05T04:55:15.768Z,100174.97
2023-05-05T04:56:17.479Z,100180.63
2023-05-05T04:57:19.182Z,100176.06
2023-05-05T04:58:20.908Z,100184.06
2023-05-05T04:59:22.909Z,100182.25
2023-05-05T05:00:24.594Z,100180.66
2023-05-05T05:01:26.319Z,100184.03
2023-05-05T05:02:28.284Z,100185.19
2023-05-05T05:03:32.348Z,100186.69
2023-05-05T05:04:34.536Z,100183.69
2023-05-05T05:05:36.249Z,100186.16
2023-05-05T05:06:37.909Z,100185.50
2023-05-05T05:07:39.770Z,100179.19
2023-05-05T05:08:41.631Z,100180.94
2023-05-05T05:09:43.667Z,100186.88
2023-05-05T05:10:45.604Z,100181.28
2023-05-05T05:11:47.333Z,100184.47
2023-05-05T05:12:49.034Z,100183.31
2023-05-05T05:13:50.854Z,100184.31
2023-05-05T05:14:52.866Z,100191.94
2023-05-05T05:15:55.351Z,100191.47
2023-05-05T05:16:57.082Z,100196.94
2023-05-05T05:17:59.007Z,100184.78
2023-05-05T05:19:01.748Z,100190.66
2023-05-05T05:20:05.061Z,100196.94
2023-05-05T05:21:07.540Z,100195.84
2023-05-05T05:22:09.374Z,100188.09
2023-05-05T05:23:11.701Z,100192.69
2023-05-05T05:24:14.279Z,100192.44
2023-05-05T05:25:16.432Z,100197.38
2023-05-05T05:26:18.521Z,100188.97
2023-05-05T05:27:20.529Z,100198.47
2023-05-05T05:28:22.623Z,100195.19
2023-05-05T05:29:24.729Z,100195.19
2023-05-05T05:30:26.806Z,100202.75
2023-05-05T05:31:28.724Z,100197.41
2023-05-05T05:32:30.782Z,100206.72
2023-05-05T05:33:32.534Z,100195.16
2023-05-05T05:34:34.266Z,100198.34
2023-05-05T05:35:37.959Z,100203.63
2023-05-05T05:36:39.794Z,100197.00
2023-05-05T05:37:41.591Z,100196.44
2023-05-05T05:38:43.403Z,100191.75
2023-05-05T05:39:51.084Z,100195.63
2023-05-05T05:40:54.512Z,100197.25
2023-05-05T05:41:56.621Z,100192.19
2023-05-05T05:42:58.372Z,100192.06
2023-05-05T05:44:01.623Z,100198.44
2023-05-05T05:45:04.025Z,100198.31
2023-05-05T05:46:08.831Z,100192.78
2023-05-05T05:47:11.085Z,100195.38
2023-05-05T05:48:13.160Z,100195.41
2023-05-05T05:49:16.291Z,100199.38
2023-05-05T05:50:18.183Z,100200.03
2023-05-05T05:51:20.387Z,100201.47
2023-05-05T05:52:22.393Z,100202.47
2023-05-05T05:53:24.375Z,100203.53
2023-05-05T05:54:26.973Z,100209.47
2023-05-05T05:55:28.798Z,100211.00
2023-05-05T05:56:31.201Z,100210.37
2023-05-05T05:57:32.931Z,100212.72
2023-05-05T05:58:34.950Z,100214.50
2023-05-05T05:59:37.030Z,100215.16
2023-05-05T06:00:39.262Z,100217.06
2023-05-05T06:01:41.745Z,100220.44
2023-05-05T06:02:43.952Z,100211.91
2023-05-05T06:03:46.439Z,100211.84
2023-05-05T06:04:48.827Z,100211.28
2023-05-05T06:05:50.706Z,100214.94
2023-05-05T06:06:52.924Z,100215.81
2023-05-05T06:07:54.650Z,100218.38
2023-05-05T06:08:56.904Z,100222.38
2023-05-05T06:10:01.384Z,100226.66
2023-05-05T06:11:09.573Z,100216.28
2023-05-05T06:12:11.746Z,100221.25
2023-05-05T06:13:13.787Z,100222.28
2023-05-05T06:14:18.091Z,100220.78
2023-05-05T06:15:20.766Z,100216.53
2023-05-05T06:16:22.661Z,100217.56
2023-05-05T06:17:25.168Z,100211.88
2023-05-05T06:18:27.030Z,100207.28
2023-05-05T06:19:29.669Z,100220.66
2023-05-05T06:20:31.939Z,100213.19
2023-05-05T06:21:33.901Z,100206.94
2023-05-05T06:22:35.916Z,100216.03
2023-05-05T06:23:37.727Z,100206.50
2023-05-05T06:24:39.711Z,100218.97
2023-05-05T06:25:41.843Z,100211.38
2023-05-05T06:26:43.574Z,100217.00
2023-05-05T06:27:45.999Z,100212.59
2023-05-05T06:28:47.703Z,100205.09
2023-05-05T06:29:49.364Z,100211.31
2023-05-05T06:30:51.824Z,100207.94
2023-05-05T06:31:53.538Z,100206.81
2023-05-05T06:32:55.834Z,100209.28
2023-05-05T06:33:57.575Z,100207.19
2023-05-05T06:34:59.229Z,100209.63
2023-05-05T06:36:01.039Z,100205.47
2023-05-05T06:37:02.735Z,100207.56
2023-05-05T06:38:04.740Z,100206.81
2023-05-05T06:39:06.373Z,100208.22
2023-05-05T06:40:08.775Z,100209.69
2023-05-05T06:41:10.699Z,100207.22
2023-05-05T06:42:12.374Z,100201.06
2023-05-05T06:43:14.381Z,100205.28
2023-05-05T06:44:16.256Z,100199.22
2023-05-05T06:45:18.276Z,100205.97
2023-05-05T06:46:19.971Z,100207.19
2023-05-05T06:47:21.875Z,100208.22
2023-05-05T06:48:23.836Z,100205.69
2023-05-05T06:49:25.523Z,100210.00
2023-05-05T06:50:27.302Z,100210.72
2023-05-05T06:51:29.022Z,100209.75
2023-05-05T06:52:30.909Z,100205.94
2023-05-05T06:53:33.093Z,100206.78
2023-05-05T06:54:34.775Z,100203.50
2023-05-05T06:55:36.951Z,100206.56
2023-05-05T06:56:38.727Z,100202.94
2023-05-05T06:57:40.446Z,100202.13
2023-05-05T06:58:42.620Z,100206.56
2023-05-05T06:59:44.374Z,100201.59
2023-05-05T07:00:46.139Z,100204.25
2023-05-05T07:01:47.872Z,100202.41
2023-05-05T07:02:49.829Z,100199.34
2023-05-05T07:03:52.605Z,100201.69
2023-05-05T07:04:55.523Z,100199.78
2023-05-05T07:05:57.717Z,100199.97
2023-05-05T07:06:59.501Z,100197.03
2023-05-05T07:08:01.460Z,100206.37
2023-05-05T07:09:04.428Z,100205.78
2023-05-05T07:10:06.889Z,100209.41
2023-05-05T07:11:08.729Z,100201.59
2023-05-05T07:12:10.543Z,100204.53
2023-05-05T07:13:12.594Z,100209.56
2023-05-05T07:14:14.800Z,100201.72
2023-05-05T07:15:26.881Z,100196.19
2023-05-05T07:16:30.892Z,100201.78
2023-05-05T07:17:32.626Z,100205.91
2023-05-05T07:18:34.907Z,100205.19
2023-05-05T07:19:36.885Z,100199.69
2023-05-05T07:20:38.600Z,100197.69
2023-05-05T07:21:40.294Z,100207.22
2023-05-05T07:22:42.272Z,100205.47
2023-05-05T07:23:46.215Z,100197.09
2023-05-05T07:24:49.676Z,100202.28
2023-05-05T07:25:51.641Z,100203.72
2023-05-05T07:26:53.361Z,100199.78
2023-05-05T07:27:55.168Z,100200.84
2023-05-05T07:28:58.671Z,100201.84
2023-05-05T07:30:00.776Z,100206.59
2023-05-05T07:31:02.481Z,100194.47
2023-05-05T07:32:04.602Z,100188.19
2023-05-05T07:33:06.818Z,100194.03
2023-05-05T07:34:08.600Z,100193.50
2023-05-05T07:35:10.874Z,100186.84
2023-05-05T07:36:12.620Z,100188.03
2023-05-05T07:37:14.386Z,100194.38
2023-05-05T07:38:16.116Z,100185.31
2023-05-05T07:39:19.507Z,100187.06
2023-05-05T07:40:21.647Z,100189.28
2023-05-05T07:41:23.512Z,100187.22
2023-05-05T07:42:25.216Z,100186.19
2023-05-05T07:43:27.201Z,100187.78
2023-05-05T07:44:28.886Z,100186.72
2023-05-05T07:45:31.516Z,100184.84
2023-05-05T07:46:33.336Z,100192.59
2023-05-05T07:47:35.467Z,100190.72
2023-05-05T07:48:37.456Z,100189.87
2023-05-05T07:49:39.136Z,100188.06
2023-05-05T07:50:41.226Z,100194.75
2023-05-05T07:51:42.998Z,100194.22
2023-05-05T07:52:49.871Z,100189.94
2023-05-05T07:53:55.755Z,100200.56
2023-05-05T07:54:57.442Z,100189.94
2023-05-05T07:55:59.543Z,100191.00
2023-05-05T07:57:02.076Z,100191.56
2023-05-05T07:58:03.867Z,100190.75
2023-05-05T07:59:05.586Z,100192.09
2023-05-05T08:00:07.866Z,100185.72
2023-05-05T08:01:13.637Z,100196.22
2023-05-05T08:02:15.857Z,100190.88
2023-05-05T08:03:20.049Z,100195.78
2023-05-05T08:04:22.008Z,100194.47
2023-05-05T08:05:23.924Z,100195.72
2023-05-05T08:06:27.701Z,100198.62
2023-05-05T08:07:29.719Z,100192.06
2023-05-05T08:08:31.536Z,100198.41
2023-05-05T08:09:33.302Z,100195.25
2023-05-05T08:10:35.090Z,100195.25
2023-05-05T08:11:36.807Z,100201.12
2023-05-05T08:12:39.176Z,100197.59
2023-05-05T08:13:42.886Z,100192.56
2023-05-05T08:14:44.536Z,100193.59
2023-05-05T08:15:46.301Z,100193.03
2023-05-05T08:16:48.068Z,100188.16
2023-05-05T08:17:51.246Z,100186.53
2023-05-05T08:18:53.120Z,100185.97
2023-05-05T08:19:54.857Z,100189.16
2023-05-05T08:20:56.571Z,100189.22
2023-05-05T08:22:01.120Z,100189.28
2023-05-05T08:23:03.515Z,100187.59
2023-05-05T08:24:05.348Z,100186.97
2023-05-05T08:25:07.554Z,100194.25
2023-05-05T08:26:09.601Z,100188.22
2023-05-05T08:27:11.411Z,100182.34
2023-05-05T08:28:13.454Z,100190.69
2023-05-05T08:29:15.367Z,100188.75
2023-05-05T08:30:20.774Z,100191.47
2023-05-05T08:31:22.534Z,100199.94
2023-05-05T08:32:24.278Z,100190.53
2023-05-05T08:33:26.287Z,100193.22
2023-05-05T08:34:27.986Z,100192.53
2023-05-05T08:35:29.629Z,100189.84
2023-05-05T08:36:31.641Z,100199.16
2023-05-05T08:37:33.375Z,100198.81
2023-05-05T08:38:36.341Z,100190.63
2023-05-05T08:39:38.023Z,100186.06
2023-05-05T08:40:40.749Z,100186.91
2023-05-05T08:41:42.638Z,100190.91
2023-05-05T08:42:47.456Z,100196.81
2023-05-05T08:43:50.581Z,100189.50
2023-05-05T08:44:52.993Z,100194.16
2023-05-05T08:45:56.220Z,100199.50
2023-05-05T08:47:00.560Z,100191.34
2023-05-05T08:48:03.398Z,100199.38
2023-05-05T08:49:07.891Z,100199.97
2023-05-05T08:50:11.101Z,100197.22
2023-05-05T08:51:19.780Z,100186.22
2023-05-05T08:52:23.420Z,100198.31
2023-05-05T08:53:45.825Z,100186.22
2023-05-05T08:54:54.764Z,100191.97
2023-05-05T08:55:59.218Z,100189.97
2023-05-05T08:57:01.956Z,100188.41
2023-05-05T08:58:04.262Z,100180.56
2023-05-05T08:59:06.149Z,100186.28
2023-05-05T09:00:09.869Z,100181.09
2023-05-05T09:01:13.059Z,100182.38
2023-05-05T09:02:16.176Z,100182.47
2023-05-05T09:03:18.675Z,100183.88
2023-05-05T09:04:20.774Z,100183.00
2023-05-05T09:05:22.845Z,100173.25
2023-05-05T09:06:26.923Z,100179.78
2023-05-05T09:07:28.768Z,100176.06
2023-05-05T09:08:31.456Z,100178.66
2023-05-05T09:09:33.194Z,100174.59
2023-05-05T09:10:36.406Z,100169.09
2023-05-05T09:11:39.241Z,100174.94
2023-05-05T09:12:41.363Z,100173.56
2023-05-05T09:13:43.569Z,100177.94
2023-05-05T09:14:46.305Z,100176.41
2023-05-05T09:15:48.355Z,100172.00
2023-05-05T09:16:50.118Z,100177.16
2023-05-05T09:17:51.996Z,100177.97
2023-05-05T09:19:03.606Z,100171.69
2023-05-05T09:20:07.389Z,100178.94
2023-05-05T09:21:19.063Z,100175.97
2023-05-05T09:22:32.383Z,100170.88
2023-05-05T09:23:34.118Z,100170.16
2023-05-05T09:24:35.810Z,100171.31
2023-05-05T09:25:37.655Z,100173.88
2023-05-05T09:26:42.174Z,100171.44
2023-05-05T09:27:47.973Z,100164.38
2023-05-05T09:28:53.275Z,100165.16
2023-05-05T09:29:56.334Z,100165.03
2023-05-05T09:31:12.059Z,100160.69
2023-05-05T09:32:14.272Z,100156.19
2023-05-05T09:33:28.517Z,100151.88
2023-05-05T09:34:30.277Z,100147.62
2023-05-05T09:35:50.560Z,100154.56
2023-05-05T09:36:52.333Z,100154.25
2023-05-05T09:37:54.399Z,100156.13
2023-05-05T09:39:06.320Z,100154.50
2023-05-05T09:40:09.309Z,100158.56
2023-05-05T09:41:11.005Z,100155.66
2023-05-05T09:42:19.391Z,100157.44
2023-05-05T09:43:23.205Z,100152.31
2023-05-05T09:44:35.168Z,100148.59
2023-05-05T09:45:36.920Z,100149.91
2023-05-05T09:46:39.181Z,100145.56
2023-05-05T09:47:41.904Z,100146.72
2023-05-05T09:48:43.980Z,100141.50
2023-05-05T09:49:45.914Z,100144.44
2023-05-05T09:50:47.631Z,100142.03
2023-05-05T09:51:49.474Z,100138.13
2023-05-05T09:53:02.174Z,100141.03
2023-05-05T09:54:04.182Z,100143.06
2023-05-05T09:55:06.451Z,100133.66
2023-05-05T09:56:08.520Z,100139.56
2023-05-05T09:57:25.557Z,100139.88
2023-05-05T09:58:28.661Z,100131.97
2023-05-05T09:59:30.707Z,100136.69
2023-05-05T10:00:39.592Z,100145.00
2023-05-05T10:01:43.722Z,100139.75
2023-05-05T10:02:45.747Z,100138.41
2023-05-05T10:03:52.321Z,100140.66
2023-05-05T10:05:04.359Z,100131.31
2023-05-05T10:06:07.874Z,100134.56
2023-05-05T10:07:22.190Z,100141.47
2023-05-05T10:08:24.898Z,100137.84
2023-05-05T10:09:26.978Z,100135.16
2023-05-05T10:10:29.117Z,100136.44
2023-05-05T10:11:31.673Z,100136.94
2023-05-05T10:12:37.135Z,100132.50
2023-05-05T10:13:41.021Z,100132.44
2023-05-05T10:14:43.313Z,100130.69
2023-05-05T10:15:45.744Z,100123.97
2023-05-05T10:16:54.906Z,100124.47
2023-05-05T10:18:06.678Z,100116.66
2023-05-05T10:19:12.457Z,100124.06
2023-05-05T10:20:15.735Z,100124.75
2023-05-05T10:21:19.921Z,100130.12
2023-05-05T10:22:22.681Z,100120.50
2023-05-05T10:23:27.957Z,100119.91
2023-05-05T10:24:35.957Z,100117.94
2023-05-05T10:25:42.165Z,100121.59
2023-05-05T10:26:44.229Z,100124.69
2023-05-05T10:27:46.941Z,100116.06
2023-05-05T10:29:01.768Z,100127.25
2023-05-05T10:30:04.562Z,100118.72
2023-05-05T10:31:20.064Z,100118.22
2023-05-05T10:32:51.999Z,100117.44
2023-05-05T10:33:55.459Z,100122.41
2023-05-05T10:35:04.032Z,100127.38
2023-05-05T10:36:07.686Z,100121.31
2023-05-05T10:37:11.521Z,100118.22
2023-05-05T10:38:13.367Z,100119.22
2023-05-05T10:39:18.088Z,100125.00
2023-05-05T10:40:21.608Z,100121.34
2023-05-05T10:41:24.215Z,100124.06
2023-05-05T10:42:26.001Z,100119.25
2023-05-05T10:43:28.330Z,100116.50
2023-05-05T10:44:31.889Z,100113.75
2023-05-05T10:45:33.925Z,100117.09
2023-05-05T10:46:36.176Z,100116.06
2023-05-05T10:47:38.371Z,100110.12
2023-05-05T10:48:48.096Z,100105.94
2023-05-05T10:49:56.144Z,100106.81
2023-05-05T10:51:08.336Z,100101.59
2023-05-05T10:52:28.866Z,100101.19
2023-05-05T10:53:40.862Z,100105.34
2023-05-05T10:54:45.224Z,100100.47
2023-05-05T10:55:54.250Z,100104.97
2023-05-05T10:56:56.989Z,100098.22
2023-05-05T10:57:58.635Z,100092.88
2023-05-05T10:59:00.962Z,100096.22
2023-05-05T11:00:04.269Z,100087.69
2023-05-05T11:01:06.815Z,100088.25
2023-05-05T11:02:18.345Z,100083.28
2023-05-05T11:03:21.412Z,100077.16
2023-05-05T11:04:23.795Z,100079.25
2023-05-05T11:05:25.583Z,100080.63
2023-05-05T11:06:28.723Z,100074.50
2023-05-05T11:07:30.740Z,100076.69
2023-05-05T11:08:33.118Z,100077.03
2023-05-05T11:09:42.105Z,100071.41
2023-05-05T11:10:44.181Z,100076.75
2023-05-05T11:12:02.665Z,100076.53
2023-05-05T11:13:04.339Z,100068.97
2023-05-05T11:14:22.541Z,100070.03
2023-05-05T11:15:24.275Z,100072.06
2023-05-05T11:16:42.642Z,100066.25
2023-05-05T11:17:48.352Z,100066.47
2023-05-05T11:18:50.224Z,100064.66
2023-05-05T11:19:52.514Z,100061.09
2023-05-05T11:20:59.962Z,100059.22
2023-05-05T11:22:02.188Z,100059.00
2023-05-05T11:23:04.646Z,100063.00
2023-05-05T11:24:27.886Z,100062.75
2023-05-05T11:25:36.290Z,100057.56
2023-05-05T11:26:53.752Z,100061.09
2023-05-05T11:28:08.791Z,100064.59
2023-05-05T11:29:11.016Z,100061.31
2023-05-05T11:30:13.225Z,100064.88
2023-05-05T11:31:15.028Z,100066.97
2023-05-05T11:32:16.811Z,100059.00
2023-05-05T11:33:36.070Z,100053.87
2023-05-05T11:34:47.809Z,100048.31
2023-05-05T11:35:59.454Z,100053.13
2023-05-05T11:37:03.372Z,100054.22
2023-05-05T11:38:06.999Z,100056.25
2023-05-05T11:39:10.113Z,100052.62
2023-05-05T11:40:23.891Z,100048.88
2023-05-05T11:41:34.383Z,100056.00
2023-05-05T11:42:36.197Z,100050.97
2023-05-05T11:43:38.184Z,100047.19
2023-05-05T11:44:40.008Z,100042.12
2023-05-05T11:45:42.126Z,100042.88
2023-05-05T11:46:52.855Z,100046.12
2023-05-05T11:48:14.536Z,100045.56
2023-05-05T11:49:26.143Z,100034.16
2023-05-05T11:50:28.004Z,100031.09
2023-05-05T11:51:30.891Z,100032.19
2023-05-05T11:52:34.492Z,100029.50
2023-05-05T11:53:36.354Z,100032.75
2023-05-05T11:54:40.544Z,100035.75
2023-05-05T11:55:42.260Z,100029.94
2023-05-05T11:56:51.246Z,100026.87
2023-05-05T11:57:53.141Z,100026.75
2023-05-05T11:59:06.750Z,100031.41
2023-05-05T12:00:09.207Z,100030.37
2023-05-05T12:01:11.565Z,100020.44
2023-05-05T12:02:16.382Z,100028.34
2023-05-05T12:03:18.217Z,100024.50
2023-05-05T12:04:20.666Z,100026.41
2023-05-05T12:05:22.455Z,100023.72
2023-05-05T12:06:24.440Z,100026.84
2023-05-05T12:07:27.267Z,100023.81
2023-05-05T12:08:29.118Z,100026.19
2023-05-05T12:09:30.932Z,100026.09
2023-05-05T12:10:32.995Z,100027.37